PWSweather.com
Personal Weather Stations
Station Observations
SEVNO44
Sevno, PrimskovoSI 1276

SevnoPrimskovoSI 1276

Lat: 45.9796285, Lon: 14.924044999999978

Elevation: 1706.0368

Station Type: WS-2307

www.primskovo.eu/vreme

High Low Average
Temperature 79.2°F26.2°C 59.5°F15.3°C 67.6°F19.8°C
Dew Point 68.8°F20.4°C 56.6°F13.7°C 61.7°F16.5°C
Winds 6.5 mph 10.5 kmh Calm Calm 1.0 mph E1.6 kmh E
Wind Gusts 11.0 mph17.7 kmh -- 2.0 mph3.2 kmh
Humidity 90% 68% 82%
Pressure 30.11 in1019.6 mb 29.93 in1013.5 mb -
Precipitation 0.84 in21.3 mm - -
Hour Temp Dew Point Humidity Winds Wind Gusts Pressure Precip Precip Rate Daily Precip Total
12:00 AM 68.4°F20.2°C 61.9°F16.6°C 80% 0.8 mph NE1.3 kmh NE 2.7 mph4.3 kmh 29.93 in1013.5 mb 0.00 in0.0 mm 0.00 in0.0 mm 0.00 in0.0 mm
12:05 AM 68.2°F20.1°C 61.8°F16.6°C 80% 1.8 mph NNE2.9 kmh NNE 2.7 mph4.3 kmh 29.93 in1013.5 mb 0.00 in0.0 mm 0.00 in0.0 mm 0.00 in0.0 mm
12:10 AM 68.2°F20.1°C 61.8°F16.6°C 80% 2.3 mph NNE3.7 kmh NNE 2.7 mph4.3 kmh 29.93 in1013.5 mb 0.00 in0.0 mm 0.00 in0.0 mm 0.00 in0.0 mm
12:15 AM 68.2°F20.1°C 61.8°F16.6°C 80% 1.6 mph NE2.6 kmh NE 2.5 mph4.0 kmh 29.93 in1013.5 mb 0.00 in0.0 mm 0.00 in0.0 mm 0.00 in0.0 mm
12:20 AM 68.2°F20.1°C 61.8°F16.6°C 80% 0.5 mph ENE0.8 kmh ENE 2.2 mph3.5 kmh 29.93 in1013.5 mb 0.00 in0.0 mm 0.00 in0.0 mm 0.00 in0.0 mm
12:25 AM 68.2°F20.1°C 61.8°F16.6°C 80% Calm Calm -- 29.93 in1013.5 mb 0.00 in0.0 mm 0.00 in0.0 mm 0.00 in0.0 mm
12:30 AM 68.0°F20.0°C 61.6°F16.4°C 80% Calm Calm -- 29.93 in1013.5 mb 0.00 in0.0 mm 0.00 in0.0 mm 0.00 in0.0 mm
12:35 AM 67.8°F19.9°C 61.4°F16.3°C 80% Calm Calm -- 29.93 in1013.5 mb 0.00 in0.0 mm 0.00 in0.0 mm 0.00 in0.0 mm
12:40 AM 67.8°F19.9°C 61.4°F16.3°C 80% Calm Calm -- 29.93 in1013.5 mb 0.00 in0.0 mm 0.00 in0.0 mm 0.00 in0.0 mm
12:45 AM 67.8°F19.9°C 61.4°F16.3°C 80% Calm Calm -- 29.93 in1013.5 mb 0.00 in0.0 mm 0.00 in0.0 mm 0.00 in0.0 mm
12:50 AM 67.6°F19.8°C 61.2°F16.2°C 80% 0.4 mph NE0.6 kmh NE 2.7 mph4.3 kmh 29.93 in1013.5 mb 0.00 in0.0 mm 0.00 in0.0 mm 0.00 in0.0 mm
12:55 AM 67.3°F19.6°C 61.2°F16.2°C 81% 1.3 mph NE2.1 kmh NE 2.7 mph4.3 kmh 29.93 in1013.5 mb 0.00 in0.0 mm 0.00 in0.0 mm 0.00 in0.0 mm
01:05 AM 67.1°F19.5°C 60.7°F15.9°C 80% 0.5 mph NNE0.8 kmh NNE 2.5 mph4.0 kmh 29.93 in1013.5 mb 0.00 in0.0 mm 0.00 in0.0 mm 0.00 in0.0 mm
01:10 AM 67.1°F19.5°C 60.7°F15.9°C 80% 0.2 mph NNE0.3 kmh NNE 2.2 mph3.5 kmh 29.93 in1013.5 mb 0.00 in0.0 mm 0.00 in0.0 mm 0.00 in0.0 mm
01:15 AM 66.9°F19.4°C 60.5°F15.8°C 80% Calm Calm -- 29.93 in1013.5 mb 0.00 in0.0 mm 0.00 in0.0 mm 0.00 in0.0 mm
01:20 AM 66.9°F19.4°C 60.5°F15.8°C 80% Calm Calm -- 29.93 in1013.5 mb 0.00 in0.0 mm 0.00 in0.0 mm 0.00 in0.0 mm
01:25 AM 66.9°F19.4°C 60.9°F16.1°C 81% 0.5 mph NNE0.8 kmh NNE 2.2 mph3.5 kmh 29.93 in1013.5 mb 0.00 in0.0 mm 0.00 in0.0 mm 0.00 in0.0 mm
01:30 AM 66.9°F19.4°C 60.9°F16.1°C 81% 0.9 mph NNE1.4 kmh NNE 2.2 mph3.5 kmh 29.93 in1013.5 mb 0.00 in0.0 mm 0.00 in0.0 mm 0.00 in0.0 mm
01:35 AM 66.9°F19.4°C 60.9°F16.1°C 81% 0.8 mph N1.3 kmh N 1.6 mph2.6 kmh 29.93 in1013.5 mb 0.00 in0.0 mm 0.00 in0.0 mm 0.00 in0.0 mm
01:40 AM 66.7°F19.3°C 60.7°F15.9°C 81% 1.0 mph NNE1.6 kmh NNE 1.6 mph2.6 kmh 29.93 in1013.5 mb 0.00 in0.0 mm 0.00 in0.0 mm 0.00 in0.0 mm
01:45 AM 66.7°F19.3°C 60.7°F15.9°C 81% 0.6 mph NNE1.0 kmh NNE 1.6 mph2.6 kmh 29.93 in1013.5 mb 0.00 in0.0 mm 0.00 in0.0 mm 0.00 in0.0 mm
01:50 AM 66.7°F19.3°C 60.7°F15.9°C 81% Calm Calm -- 29.93 in1013.5 mb 0.00 in0.0 mm 0.00 in0.0 mm 0.00 in0.0 mm
01:55 AM 66.7°F19.3°C 60.7°F15.9°C 81% Calm Calm -- 29.93 in1013.5 mb 0.00 in0.0 mm 0.00 in0.0 mm 0.00 in0.0 mm
02:05 AM 66.6°F19.2°C 60.5°F15.8°C 81% Calm Calm -- 29.93 in1013.5 mb 0.00 in0.0 mm 0.00 in0.0 mm 0.00 in0.0 mm
02:10 AM 66.6°F19.2°C 60.9°F16.1°C 82% 0.7 mph NNE1.1 kmh NNE 2.9 mph4.7 kmh 29.94 in1013.9 mb 0.00 in0.0 mm 0.00 in0.0 mm 0.00 in0.0 mm
02:15 AM 66.4°F19.1°C 60.7°F15.9°C 82% 1.5 mph NNE2.4 kmh NNE 2.9 mph4.7 kmh 29.94 in1013.9 mb 0.00 in0.0 mm 0.00 in0.0 mm 0.00 in0.0 mm
02:20 AM 66.4°F19.1°C 60.7°F15.9°C 82% 0.8 mph NNE1.3 kmh NNE 2.5 mph4.0 kmh 29.93 in1013.5 mb 0.00 in0.0 mm 0.00 in0.0 mm 0.00 in0.0 mm
02:25 AM 66.4°F19.1°C 60.7°F15.9°C 82% Calm Calm -- 29.93 in1013.5 mb 0.00 in0.0 mm 0.00 in0.0 mm 0.00 in0.0 mm
02:30 AM 66.2°F19.0°C 60.5°F15.8°C 82% 0.6 mph NNE1.0 kmh NNE 2.2 mph3.5 kmh 29.93 in1013.5 mb 0.00 in0.0 mm 0.00 in0.0 mm 0.00 in0.0 mm
02:35 AM 66.2°F19.0°C 60.5°F15.8°C 82% 1.2 mph NNE1.9 kmh NNE 2.2 mph3.5 kmh 29.93 in1013.5 mb 0.00 in0.0 mm 0.00 in0.0 mm 0.00 in0.0 mm
02:40 AM 66.2°F19.0°C 60.5°F15.8°C 82% 0.9 mph N1.4 kmh N 2.0 mph3.2 kmh 29.94 in1013.9 mb 0.00 in0.0 mm 0.00 in0.0 mm 0.00 in0.0 mm
02:45 AM 66.2°F19.0°C 60.5°F15.8°C 82% 0.9 mph N1.4 kmh N 2.5 mph4.0 kmh 29.93 in1013.5 mb 0.00 in0.0 mm 0.00 in0.0 mm 0.00 in0.0 mm
02:50 AM 66.2°F19.0°C 60.5°F15.8°C 82% 0.6 mph NNE1.0 kmh NNE 2.5 mph4.0 kmh 29.93 in1013.5 mb 0.00 in0.0 mm 0.00 in0.0 mm 0.00 in0.0 mm
02:55 AM 66.2°F19.0°C 60.5°F15.8°C 82% Calm Calm -- 29.93 in1013.5 mb 0.00 in0.0 mm 0.00 in0.0 mm 0.00 in0.0 mm
03:00 AM 66.2°F19.0°C 60.5°F15.8°C 82% Calm Calm -- 29.93 in1013.5 mb 0.00 in0.0 mm 0.00 in0.0 mm 0.00 in0.0 mm
03:05 AM 66.2°F19.0°C 60.5°F15.8°C 82% 0.5 mph N0.8 kmh N 0.9 mph1.4 kmh 29.93 in1013.5 mb 0.00 in0.0 mm 0.00 in0.0 mm 0.00 in0.0 mm
03:10 AM 66.0°F18.9°C 60.4°F15.8°C 82% 1.1 mph N1.8 kmh N 1.6 mph2.6 kmh 29.93 in1013.5 mb 0.00 in0.0 mm 0.00 in0.0 mm 0.00 in0.0 mm
03:15 AM 66.0°F18.9°C 60.4°F15.8°C 82% 1.1 mph N1.8 kmh N 2.5 mph4.0 kmh 29.93 in1013.5 mb 0.00 in0.0 mm 0.00 in0.0 mm 0.00 in0.0 mm
03:20 AM 66.0°F18.9°C 60.7°F15.9°C 83% 1.2 mph NNE1.9 kmh NNE 2.5 mph4.0 kmh 29.93 in1013.5 mb 0.00 in0.0 mm 0.00 in0.0 mm 0.00 in0.0 mm
03:25 AM 66.0°F18.9°C 60.7°F15.9°C 83% 1.0 mph NNE1.6 kmh NNE 2.5 mph4.0 kmh 29.93 in1013.5 mb 0.00 in0.0 mm 0.00 in0.0 mm 0.00 in0.0 mm
03:30 AM 66.0°F18.9°C 60.4°F15.8°C 82% 1.0 mph NNE1.6 kmh NNE 2.0 mph3.2 kmh 29.93 in1013.5 mb 0.00 in0.0 mm 0.00 in0.0 mm 0.00 in0.0 mm
03:35 AM 66.0°F18.9°C 60.4°F15.8°C 82% 0.9 mph NNE1.4 kmh NNE 2.0 mph3.2 kmh 29.93 in1013.5 mb 0.00 in0.0 mm 0.00 in0.0 mm 0.00 in0.0 mm
03:40 AM 66.0°F18.9°C 60.7°F15.9°C 83% Calm Calm -- 29.93 in1013.5 mb 0.00 in0.0 mm 0.00 in0.0 mm 0.00 in0.0 mm
03:45 AM 66.0°F18.9°C 60.7°F15.9°C 83% Calm Calm -- 29.93 in1013.5 mb 0.00 in0.0 mm 0.00 in0.0 mm 0.00 in0.0 mm
03:50 AM 66.0°F18.9°C 60.7°F15.9°C 83% Calm Calm -- 29.93 in1013.5 mb 0.00 in0.0 mm 0.00 in0.0 mm 0.00 in0.0 mm
03:55 AM 65.8°F18.8°C 60.5°F15.8°C 83% Calm Calm -- 29.94 in1013.9 mb 0.00 in0.0 mm 0.00 in0.0 mm 0.00 in0.0 mm
04:00 AM 65.7°F18.7°C 60.4°F15.8°C 83% Calm Calm -- 29.93 in1013.5 mb 0.00 in0.0 mm 0.00 in0.0 mm 0.00 in0.0 mm
04:05 AM 65.5°F18.6°C 60.2°F15.7°C 83% 0.3 mph NNE0.5 kmh NNE 1.6 mph2.6 kmh 29.93 in1013.5 mb 0.00 in0.0 mm 0.00 in0.0 mm 0.00 in0.0 mm
04:10 AM 65.5°F18.6°C 60.2°F15.7°C 83% 0.9 mph NNE1.4 kmh NNE 1.6 mph2.6 kmh 29.93 in1013.5 mb 0.00 in0.0 mm 0.00 in0.0 mm 0.00 in0.0 mm
04:15 AM 65.3°F18.5°C 60.0°F15.6°C 83% 1.0 mph NE1.6 kmh NE 2.2 mph3.5 kmh 29.93 in1013.5 mb 0.00 in0.0 mm 0.00 in0.0 mm 0.00 in0.0 mm
04:20 AM 65.3°F18.5°C 60.0°F15.6°C 83% 1.6 mph NNE2.6 kmh NNE 2.5 mph4.0 kmh 29.93 in1013.5 mb 0.00 in0.0 mm 0.00 in0.0 mm 0.00 in0.0 mm
04:25 AM 65.3°F18.5°C 60.0°F15.6°C 83% 1.9 mph NNE3.1 kmh NNE 2.5 mph4.0 kmh 29.93 in1013.5 mb 0.00 in0.0 mm 0.00 in0.0 mm 0.00 in0.0 mm
04:30 AM 65.1°F18.4°C 59.8°F15.4°C 83% 1.1 mph NE1.8 kmh NE 2.5 mph4.0 kmh 29.93 in1013.5 mb 0.00 in0.0 mm 0.00 in0.0 mm 0.00 in0.0 mm
04:35 AM 65.1°F18.4°C 59.8°F15.4°C 83% 0.3 mph SE0.5 kmh SE 1.6 mph2.6 kmh 29.94 in1013.9 mb 0.00 in0.0 mm 0.00 in0.0 mm 0.00 in0.0 mm
04:40 AM 65.1°F18.4°C 59.8°F15.4°C 83% Calm Calm -- 29.94 in1013.9 mb 0.00 in0.0 mm 0.00 in0.0 mm 0.00 in0.0 mm
04:45 AM 65.1°F18.4°C 59.8°F15.4°C 83% Calm Calm -- 29.93 in1013.5 mb 0.00 in0.0 mm 0.00 in0.0 mm 0.00 in0.0 mm
04:50 AM 65.1°F18.4°C 59.8°F15.4°C 83% Calm Calm -- 29.94 in1013.9 mb 0.00 in0.0 mm 0.00 in0.0 mm 0.00 in0.0 mm
04:55 AM 65.1°F18.4°C 59.8°F15.4°C 83% Calm Calm -- 29.94 in1013.9 mb 0.00 in0.0 mm 0.00 in0.0 mm 0.00 in0.0 mm
05:00 AM 65.1°F18.4°C 59.8°F15.4°C 83% 0.8 mph NE1.3 kmh NE 2.0 mph3.2 kmh 29.94 in1013.9 mb 0.00 in0.0 mm 0.00 in0.0 mm 0.00 in0.0 mm
05:05 AM 65.1°F18.4°C 59.8°F15.4°C 83% 1.6 mph NNE2.6 kmh NNE 2.2 mph3.5 kmh 29.94 in1013.9 mb 0.00 in0.0 mm 0.00 in0.0 mm 0.00 in0.0 mm
05:10 AM 65.1°F18.4°C 59.8°F15.4°C 83% 1.8 mph N2.9 kmh N 2.2 mph3.5 kmh 29.94 in1013.9 mb 0.00 in0.0 mm 0.00 in0.0 mm 0.00 in0.0 mm
05:15 AM 65.1°F18.4°C 59.8°F15.4°C 83% 2.0 mph NNE3.2 kmh NNE 2.2 mph3.5 kmh 29.94 in1013.9 mb 0.00 in0.0 mm 0.00 in0.0 mm 0.00 in0.0 mm
05:20 AM 65.3°F18.5°C 60.0°F15.6°C 83% 1.5 mph NNE2.4 kmh NNE 2.0 mph3.2 kmh 29.94 in1013.9 mb 0.00 in0.0 mm 0.00 in0.0 mm 0.00 in0.0 mm
05:25 AM 65.3°F18.5°C 60.0°F15.6°C 83% 0.4 mph NNE0.6 kmh NNE 2.0 mph3.2 kmh 29.94 in1013.9 mb 0.00 in0.0 mm 0.00 in0.0 mm 0.00 in0.0 mm
05:30 AM 65.3°F18.5°C 60.0°F15.6°C 83% Calm Calm 1.3 mph2.1 kmh 29.94 in1013.9 mb 0.00 in0.0 mm 0.00 in0.0 mm 0.00 in0.0 mm
05:35 AM 65.3°F18.5°C 60.0°F15.6°C 83% 0.5 mph NE0.8 kmh NE 2.2 mph3.5 kmh 29.94 in1013.9 mb 0.00 in0.0 mm 0.00 in0.0 mm 0.00 in0.0 mm
05:40 AM 65.3°F18.5°C 60.0°F15.6°C 83% 0.7 mph NE1.1 kmh NE 2.2 mph3.5 kmh 29.94 in1013.9 mb 0.00 in0.0 mm 0.00 in0.0 mm 0.00 in0.0 mm
05:45 AM 65.3°F18.5°C 60.0°F15.6°C 83% 0.3 mph NNE0.5 kmh NNE 2.2 mph3.5 kmh 29.95 in1014.2 mb 0.00 in0.0 mm 0.00 in0.0 mm 0.00 in0.0 mm
05:50 AM 65.3°F18.5°C 60.0°F15.6°C 83% Calm Calm -- 29.94 in1013.9 mb 0.00 in0.0 mm 0.00 in0.0 mm 0.00 in0.0 mm
05:55 AM 65.3°F18.5°C 60.0°F15.6°C 83% Calm Calm -- 29.94 in1013.9 mb 0.00 in0.0 mm 0.00 in0.0 mm 0.00 in0.0 mm
06:00 AM 65.3°F18.5°C 60.0°F15.6°C 83% Calm Calm -- 29.94 in1013.9 mb 0.00 in0.0 mm 0.00 in0.0 mm 0.00 in0.0 mm
06:10 AM 65.5°F18.6°C 60.5°F15.8°C 84% Calm Calm -- 29.94 in1013.9 mb 0.00 in0.0 mm 0.00 in0.0 mm 0.00 in0.0 mm
06:15 AM 65.5°F18.6°C 60.5°F15.8°C 84% Calm Calm -- 29.94 in1013.9 mb 0.00 in0.0 mm 0.00 in0.0 mm 0.00 in0.0 mm
06:20 AM 65.5°F18.6°C 60.5°F15.8°C 84% Calm Calm -- 29.95 in1014.2 mb 0.00 in0.0 mm 0.00 in0.0 mm 0.00 in0.0 mm
06:25 AM 65.5°F18.6°C 60.5°F15.8°C 84% Calm Calm -- 29.95 in1014.2 mb 0.00 in0.0 mm 0.00 in0.0 mm 0.00 in0.0 mm
06:30 AM 65.1°F18.4°C 60.2°F15.7°C 84% Calm Calm -- 29.95 in1014.2 mb 0.00 in0.0 mm 0.00 in0.0 mm 0.00 in0.0 mm
06:35 AM 65.1°F18.4°C 60.2°F15.7°C 84% Calm Calm -- 29.95 in1014.2 mb 0.00 in0.0 mm 0.00 in0.0 mm 0.00 in0.0 mm
06:40 AM 65.1°F18.4°C 60.2°F15.7°C 84% Calm Calm -- 29.95 in1014.2 mb 0.00 in0.0 mm 0.00 in0.0 mm 0.00 in0.0 mm
06:45 AM 65.1°F18.4°C 60.2°F15.7°C 84% Calm Calm -- 29.95 in1014.2 mb 0.00 in0.0 mm 0.00 in0.0 mm 0.00 in0.0 mm
06:50 AM 65.1°F18.4°C 60.2°F15.7°C 84% Calm Calm -- 29.95 in1014.2 mb 0.00 in0.0 mm 0.00 in0.0 mm 0.00 in0.0 mm
06:55 AM 65.5°F18.6°C 60.8°F16.0°C 85% Calm Calm -- 29.95 in1014.2 mb 0.00 in0.0 mm 0.00 in0.0 mm 0.00 in0.0 mm
07:00 AM 65.5°F18.6°C 60.8°F16.0°C 85% Calm Calm -- 29.96 in1014.6 mb 0.00 in0.0 mm 0.00 in0.0 mm 0.00 in0.0 mm
07:05 AM 65.5°F18.6°C 60.8°F16.0°C 85% Calm Calm -- 29.95 in1014.2 mb 0.00 in0.0 mm 0.00 in0.0 mm 0.00 in0.0 mm
07:10 AM 65.7°F18.7°C 61.0°F16.1°C 85% Calm Calm -- 29.96 in1014.6 mb 0.00 in0.0 mm 0.00 in0.0 mm 0.00 in0.0 mm
07:15 AM 65.8°F18.8°C 61.2°F16.2°C 85% Calm Calm -- 29.96 in1014.6 mb 0.00 in0.0 mm 0.00 in0.0 mm 0.00 in0.0 mm
07:20 AM 65.8°F18.8°C 61.2°F16.2°C 85% Calm Calm -- 29.96 in1014.6 mb 0.00 in0.0 mm 0.00 in0.0 mm 0.00 in0.0 mm
07:25 AM 65.8°F18.8°C 61.2°F16.2°C 85% Calm Calm -- 29.96 in1014.6 mb 0.00 in0.0 mm 0.00 in0.0 mm 0.00 in0.0 mm
07:30 AM 66.0°F18.9°C 61.4°F16.3°C 85% Calm Calm -- 29.96 in1014.6 mb 0.00 in0.0 mm 0.00 in0.0 mm 0.00 in0.0 mm
07:35 AM 65.8°F18.8°C 61.2°F16.2°C 85% Calm Calm -- 29.96 in1014.6 mb 0.00 in0.0 mm 0.00 in0.0 mm 0.00 in0.0 mm
07:40 AM 66.0°F18.9°C 61.4°F16.3°C 85% Calm Calm -- 29.96 in1014.6 mb 0.00 in0.0 mm 0.00 in0.0 mm 0.00 in0.0 mm
07:45 AM 66.0°F18.9°C 61.4°F16.3°C 85% Calm Calm -- 29.96 in1014.6 mb 0.00 in0.0 mm 0.00 in0.0 mm 0.00 in0.0 mm
07:50 AM 66.4°F19.1°C 61.7°F16.5°C 85% Calm Calm -- 29.96 in1014.6 mb 0.00 in0.0 mm 0.00 in0.0 mm 0.00 in0.0 mm
07:55 AM 66.2°F19.0°C 61.6°F16.4°C 85% Calm Calm -- 29.96 in1014.6 mb 0.00 in0.0 mm 0.00 in0.0 mm 0.00 in0.0 mm
08:00 AM 66.4°F19.1°C 61.7°F16.5°C 85% Calm Calm -- 29.96 in1014.6 mb 0.00 in0.0 mm 0.00 in0.0 mm 0.00 in0.0 mm
08:05 AM 66.4°F19.1°C 61.7°F16.5°C 85% Calm Calm -- 29.96 in1014.6 mb 0.00 in0.0 mm 0.00 in0.0 mm 0.00 in0.0 mm
08:10 AM 66.4°F19.1°C 61.7°F16.5°C 85% Calm Calm -- 29.96 in1014.6 mb 0.00 in0.0 mm 0.00 in0.0 mm 0.00 in0.0 mm
08:15 AM 66.7°F19.3°C 62.1°F16.7°C 85% Calm Calm -- 29.96 in1014.6 mb 0.00 in0.0 mm 0.00 in0.0 mm 0.00 in0.0 mm
08:20 AM 66.7°F19.3°C 62.1°F16.7°C 85% Calm Calm -- 29.97 in1014.9 mb 0.00 in0.0 mm 0.00 in0.0 mm 0.00 in0.0 mm
08:25 AM 66.7°F19.3°C 62.1°F16.7°C 85% Calm Calm -- 29.97 in1014.9 mb 0.00 in0.0 mm 0.00 in0.0 mm 0.00 in0.0 mm
08:30 AM 66.9°F19.4°C 62.3°F16.8°C 85% Calm Calm -- 29.97 in1014.9 mb 0.00 in0.0 mm 0.00 in0.0 mm 0.00 in0.0 mm
08:35 AM 66.9°F19.4°C 62.6°F17.0°C 86% Calm Calm -- 29.97 in1014.9 mb 0.00 in0.0 mm 0.00 in0.0 mm 0.00 in0.0 mm
08:40 AM 67.1°F19.5°C 62.8°F17.1°C 86% 0.4 mph SSW0.6 kmh SSW 1.1 mph1.8 kmh 29.97 in1014.9 mb 0.00 in0.0 mm 0.00 in0.0 mm 0.00 in0.0 mm
08:45 AM 67.3°F19.6°C 62.9°F17.2°C 86% 0.4 mph SSW0.6 kmh SSW 1.1 mph1.8 kmh 29.97 in1014.9 mb 0.00 in0.0 mm 0.00 in0.0 mm 0.00 in0.0 mm
08:50 AM 67.3°F19.6°C 62.9°F17.2°C 86% Calm Calm 1.1 mph1.8 kmh 29.97 in1014.9 mb 0.00 in0.0 mm 0.00 in0.0 mm 0.00 in0.0 mm
08:55 AM 67.3°F19.6°C 62.9°F17.2°C 86% Calm Calm -- 29.97 in1014.9 mb 0.00 in0.0 mm 0.00 in0.0 mm 0.00 in0.0 mm
09:00 AM 68.2°F20.1°C 63.8°F17.7°C 86% Calm Calm 0.9 mph1.4 kmh 29.97 in1014.9 mb 0.00 in0.0 mm 0.00 in0.0 mm 0.00 in0.0 mm
09:05 AM 68.4°F20.2°C 64.0°F17.8°C 86% 0.4 mph SSW0.6 kmh SSW 1.6 mph2.6 kmh 29.98 in1015.2 mb 0.00 in0.0 mm 0.00 in0.0 mm 0.00 in0.0 mm
09:10 AM 68.5°F20.3°C 64.2°F17.9°C 86% 0.5 mph SSW0.8 kmh SSW 1.6 mph2.6 kmh 29.98 in1015.2 mb 0.00 in0.0 mm 0.00 in0.0 mm 0.00 in0.0 mm
09:15 AM 68.9°F20.5°C 64.5°F18.1°C 86% 0.2 mph S0.3 kmh S 1.6 mph2.6 kmh 29.98 in1015.2 mb 0.00 in0.0 mm 0.00 in0.0 mm 0.00 in0.0 mm
09:20 AM 68.9°F20.5°C 64.5°F18.1°C 86% 0.2 mph E0.3 kmh E 1.1 mph1.8 kmh 29.97 in1014.9 mb 0.00 in0.0 mm 0.00 in0.0 mm 0.00 in0.0 mm
09:25 AM 68.9°F20.5°C 64.5°F18.1°C 86% 0.2 mph E0.3 kmh E 1.1 mph1.8 kmh 29.98 in1015.2 mb 0.00 in0.0 mm 0.00 in0.0 mm 0.00 in0.0 mm
09:30 AM 70.0°F21.1°C 65.3°F18.5°C 85% 0.5 mph S0.8 kmh S 2.2 mph3.5 kmh 29.98 in1015.2 mb 0.00 in0.0 mm 0.00 in0.0 mm 0.00 in0.0 mm
09:35 AM 70.0°F21.1°C 65.3°F18.5°C 85% 1.4 mph SW2.3 kmh SW 2.2 mph3.5 kmh 29.98 in1015.2 mb 0.00 in0.0 mm 0.00 in0.0 mm 0.00 in0.0 mm
09:40 AM 70.3°F21.3°C 65.3°F18.5°C 84% 1.7 mph SW2.7 kmh SW 1.8 mph2.9 kmh 29.98 in1015.2 mb 0.00 in0.0 mm 0.00 in0.0 mm 0.00 in0.0 mm
09:45 AM 70.5°F21.4°C 65.4°F18.6°C 84% 1.6 mph S2.6 kmh S 1.8 mph2.9 kmh 29.98 in1015.2 mb 0.00 in0.0 mm 0.00 in0.0 mm 0.00 in0.0 mm
09:50 AM 70.5°F21.4°C 65.4°F18.6°C 84% 1.9 mph SSE3.1 kmh SSE 2.7 mph4.3 kmh 29.98 in1015.2 mb 0.00 in0.0 mm 0.00 in0.0 mm 0.00 in0.0 mm
09:55 AM 70.5°F21.4°C 65.4°F18.6°C 84% 2.3 mph SSE3.7 kmh SSE 2.7 mph4.3 kmh 29.98 in1015.2 mb 0.00 in0.0 mm 0.00 in0.0 mm 0.00 in0.0 mm
10:00 AM 70.5°F21.4°C 65.4°F18.6°C 84% 2.7 mph SSE4.3 kmh SSE 2.7 mph4.3 kmh 29.98 in1015.2 mb 0.00 in0.0 mm 0.00 in0.0 mm 0.00 in0.0 mm
10:05 AM 72.0°F22.2°C 66.9°F19.4°C 84% 2.8 mph SSE4.5 kmh SSE 3.4 mph5.5 kmh 29.98 in1015.2 mb 0.00 in0.0 mm 0.00 in0.0 mm 0.00 in0.0 mm
10:10 AM 72.3°F22.4°C 66.9°F19.4°C 83% 2.2 mph S3.5 kmh S 3.4 mph5.5 kmh 29.98 in1015.2 mb 0.00 in0.0 mm 0.00 in0.0 mm 0.00 in0.0 mm
10:15 AM 73.0°F22.8°C 67.2°F19.6°C 82% 1.8 mph S2.9 kmh S 3.4 mph5.5 kmh 29.98 in1015.2 mb 0.00 in0.0 mm 0.00 in0.0 mm 0.00 in0.0 mm
10:20 AM 73.2°F22.9°C 67.4°F19.7°C 82% 1.5 mph S2.4 kmh S 2.5 mph4.0 kmh 29.98 in1015.2 mb 0.00 in0.0 mm 0.00 in0.0 mm 0.00 in0.0 mm
10:25 AM 73.8°F23.2°C 67.6°F19.8°C 81% 1.2 mph SW1.9 kmh SW 2.0 mph3.2 kmh 29.98 in1015.2 mb 0.00 in0.0 mm 0.00 in0.0 mm 0.00 in0.0 mm
10:30 AM 74.1°F23.4°C 67.6°F19.8°C 80% 1.8 mph SW2.9 kmh SW 3.1 mph5.0 kmh 29.98 in1015.2 mb 0.00 in0.0 mm 0.00 in0.0 mm 0.00 in0.0 mm
10:35 AM 74.5°F23.6°C 68.3°F20.2°C 81% 2.6 mph SW4.2 kmh SW 3.6 mph5.8 kmh 29.98 in1015.2 mb 0.00 in0.0 mm 0.00 in0.0 mm 0.00 in0.0 mm
10:40 AM 74.8°F23.8°C 68.3°F20.2°C 80% 2.8 mph SW4.5 kmh SW 3.6 mph5.8 kmh 29.98 in1015.2 mb 0.00 in0.0 mm 0.00 in0.0 mm 0.00 in0.0 mm
10:45 AM 75.2°F24.0°C 68.2°F20.1°C 79% 3.4 mph S5.5 kmh S 4.9 mph7.9 kmh 29.98 in1015.2 mb 0.00 in0.0 mm 0.00 in0.0 mm 0.00 in0.0 mm
10:50 AM 75.2°F24.0°C 68.2°F20.1°C 79% 4.2 mph SW6.8 kmh SW 4.9 mph7.9 kmh 29.98 in1015.2 mb 0.00 in0.0 mm 0.00 in0.0 mm 0.00 in0.0 mm
10:55 AM 75.2°F24.0°C 68.2°F20.1°C 79% 4.2 mph WSW6.8 kmh WSW 4.3 mph6.9 kmh 29.98 in1015.2 mb 0.00 in0.0 mm 0.00 in0.0 mm 0.00 in0.0 mm
11:00 AM 76.3°F24.6°C 68.2°F20.1°C 76% 4.6 mph WSW7.4 kmh WSW 6.3 mph10.1 kmh 29.98 in1015.2 mb 0.00 in0.0 mm 0.00 in0.0 mm 0.00 in0.0 mm
11:05 AM 76.6°F24.8°C 68.1°F20.1°C 75% 4.6 mph SSE7.4 kmh SSE 6.3 mph10.1 kmh 29.99 in1015.6 mb 0.00 in0.0 mm 0.00 in0.0 mm 0.00 in0.0 mm
11:10 AM 76.8°F24.9°C 67.9°F19.9°C 74% 4.3 mph SSE6.9 kmh SSE 5.4 mph8.7 kmh 29.98 in1015.2 mb 0.00 in0.0 mm 0.00 in0.0 mm 0.00 in0.0 mm
11:15 AM 77.2°F25.1°C 68.6°F20.3°C 75% 4.4 mph SSE7.1 kmh SSE 5.6 mph9.0 kmh 29.98 in1015.2 mb 0.00 in0.0 mm 0.00 in0.0 mm 0.00 in0.0 mm
11:20 AM 77.5°F25.3°C 68.6°F20.3°C 74% 4.5 mph SSE7.2 kmh SSE 5.6 mph9.0 kmh 29.99 in1015.6 mb 0.00 in0.0 mm 0.00 in0.0 mm 0.00 in0.0 mm
11:25 AM 77.7°F25.4°C 68.8°F20.4°C 74% 5.7 mph SE9.2 kmh SE 11.0 mph17.7 kmh 29.98 in1015.2 mb 0.00 in0.0 mm 0.00 in0.0 mm 0.00 in0.0 mm
11:30 AM 78.1°F25.6°C 68.3°F20.2°C 72% 5.1 mph SE8.2 kmh SE 11.0 mph17.7 kmh 29.99 in1015.6 mb 0.00 in0.0 mm 0.00 in0.0 mm 0.00 in0.0 mm
11:35 AM 78.1°F25.6°C 67.9°F19.9°C 71% 4.6 mph SE7.4 kmh SE 6.7 mph10.8 kmh 29.98 in1015.2 mb 0.00 in0.0 mm 0.00 in0.0 mm 0.00 in0.0 mm
11:40 AM 78.1°F25.6°C 67.9°F19.9°C 71% 3.1 mph ESE5.0 kmh ESE 6.7 mph10.8 kmh 29.98 in1015.2 mb 0.00 in0.0 mm 0.00 in0.0 mm 0.00 in0.0 mm
11:45 AM 78.1°F25.6°C 68.3°F20.2°C 72% 1.3 mph SSE2.1 kmh SSE 3.1 mph5.0 kmh 29.98 in1015.2 mb 0.00 in0.0 mm 0.00 in0.0 mm 0.00 in0.0 mm
11:50 AM 78.1°F25.6°C 68.3°F20.2°C 72% 2.8 mph SE4.5 kmh SE 4.3 mph6.9 kmh 29.98 in1015.2 mb 0.00 in0.0 mm 0.00 in0.0 mm 0.00 in0.0 mm
11:55 AM 78.4°F25.8°C 68.7°F20.4°C 72% 2.7 mph ESE4.3 kmh ESE 4.3 mph6.9 kmh 29.98 in1015.2 mb 0.00 in0.0 mm 0.00 in0.0 mm 0.00 in0.0 mm
12:00 PM 78.6°F25.9°C 68.4°F20.2°C 71% 3.5 mph ESE5.6 kmh ESE 6.3 mph10.1 kmh 29.98 in1015.2 mb 0.00 in0.0 mm 0.00 in0.0 mm 0.00 in0.0 mm
12:05 PM 79.0°F26.1°C 68.8°F20.4°C 71% 4.7 mph E7.6 kmh E 6.3 mph10.1 kmh 29.99 in1015.6 mb 0.00 in0.0 mm 0.00 in0.0 mm 0.00 in0.0 mm
12:10 PM 79.0°F26.1°C 68.4°F20.2°C 70% 3.2 mph E5.1 kmh E 5.4 mph8.7 kmh 29.98 in1015.2 mb 0.00 in0.0 mm 0.00 in0.0 mm 0.00 in0.0 mm
12:15 PM 79.2°F26.2°C 68.5°F20.3°C 70% 5.6 mph SE9.0 kmh SE 8.9 mph14.3 kmh 29.98 in1015.2 mb 0.00 in0.0 mm 0.00 in0.0 mm 0.00 in0.0 mm
12:20 PM 79.2°F26.2°C 68.1°F20.1°C 69% 6.5 mph SE10.5 kmh SE 8.9 mph14.3 kmh 29.99 in1015.6 mb 0.00 in0.0 mm 0.00 in0.0 mm 0.00 in0.0 mm
12:25 PM 79.0°F26.1°C 67.5°F19.7°C 68% 4.5 mph SE7.2 kmh SE 8.9 mph14.3 kmh 29.99 in1015.6 mb 0.00 in0.0 mm 0.00 in0.0 mm 0.00 in0.0 mm
12:30 PM 78.6°F25.9°C 67.2°F19.6°C 68% 4.9 mph SSE7.9 kmh SSE 5.8 mph9.3 kmh 29.99 in1015.6 mb 0.00 in0.0 mm 0.00 in0.0 mm 0.00 in0.0 mm
12:35 PM 78.4°F25.8°C 67.4°F19.7°C 69% 4.5 mph SSE7.2 kmh SSE 5.8 mph9.3 kmh 29.99 in1015.6 mb 0.00 in0.0 mm 0.00 in0.0 mm 0.00 in0.0 mm
12:40 PM 78.1°F25.6°C 67.1°F19.5°C 69% 3.8 mph SE6.1 kmh SE 5.8 mph9.3 kmh 29.98 in1015.2 mb 0.00 in0.0 mm 0.00 in0.0 mm 0.00 in0.0 mm
12:45 PM 78.3°F25.7°C 67.7°F19.8°C 70% 2.5 mph S4.0 kmh S 4.0 mph6.4 kmh 29.98 in1015.2 mb 0.00 in0.0 mm 0.00 in0.0 mm 0.00 in0.0 mm
12:50 PM 78.4°F25.8°C 67.8°F19.9°C 70% 1.8 mph S2.9 kmh S 3.8 mph6.1 kmh 29.98 in1015.2 mb 0.00 in0.0 mm 0.00 in0.0 mm 0.00 in0.0 mm
12:55 PM 78.6°F25.9°C 67.6°F19.8°C 69% 1.8 mph SSW2.9 kmh SSW 3.8 mph6.1 kmh 29.98 in1015.2 mb 0.00 in0.0 mm 0.00 in0.0 mm 0.00 in0.0 mm
01:00 PM 78.6°F25.9°C 67.6°F19.8°C 69% 1.5 mph SE2.4 kmh SE 2.9 mph4.7 kmh 29.98 in1015.2 mb 0.00 in0.0 mm 0.00 in0.0 mm 0.00 in0.0 mm
01:05 PM 78.6°F25.9°C 67.6°F19.8°C 69% 2.1 mph SE3.4 kmh SE 3.1 mph5.0 kmh 29.98 in1015.2 mb 0.00 in0.0 mm 0.00 in0.0 mm 0.00 in0.0 mm
01:10 PM 78.6°F25.9°C 67.2°F19.6°C 68% 2.7 mph S4.3 kmh S 3.1 mph5.0 kmh 29.98 in1015.2 mb 0.00 in0.0 mm 0.00 in0.0 mm 0.00 in0.0 mm
01:15 PM 78.6°F25.9°C 67.6°F19.8°C 69% 1.5 mph SSE2.4 kmh SSE 3.1 mph5.0 kmh 29.98 in1015.2 mb 0.00 in0.0 mm 0.00 in0.0 mm 0.00 in0.0 mm
01:20 PM 78.6°F25.9°C 67.2°F19.6°C 68% 0.9 mph SSE1.4 kmh SSE 1.6 mph2.6 kmh 29.98 in1015.2 mb 0.00 in0.0 mm 0.00 in0.0 mm 0.00 in0.0 mm
01:25 PM 77.9°F25.5°C 66.9°F19.4°C 69% 1.8 mph SSE2.9 kmh SSE 2.7 mph4.3 kmh 29.97 in1014.9 mb 0.00 in0.0 mm 0.00 in0.0 mm 0.00 in0.0 mm
01:30 PM 77.7°F25.4°C 66.7°F19.3°C 69% 2.3 mph SSE3.7 kmh SSE 4.0 mph6.4 kmh 29.98 in1015.2 mb 0.00 in0.0 mm 0.00 in0.0 mm 0.00 in0.0 mm
01:35 PM 77.7°F25.4°C 66.7°F19.3°C 69% 2.8 mph SSE4.5 kmh SSE 4.0 mph6.4 kmh 29.98 in1015.2 mb 0.00 in0.0 mm 0.00 in0.0 mm 0.00 in0.0 mm
01:40 PM 77.4°F25.2°C 66.4°F19.1°C 69% 2.5 mph SE4.0 kmh SE 3.4 mph5.5 kmh 29.98 in1015.2 mb 0.00 in0.0 mm 0.00 in0.0 mm 0.00 in0.0 mm
01:45 PM 77.0°F25.0°C 66.0°F18.9°C 69% 2.3 mph SSE3.7 kmh SSE 2.9 mph4.7 kmh 29.97 in1014.9 mb 0.00 in0.0 mm 0.00 in0.0 mm 0.00 in0.0 mm
01:50 PM 76.6°F24.8°C 66.1°F18.9°C 70% 2.0 mph SE3.2 kmh SE 2.9 mph4.7 kmh 29.98 in1015.2 mb 0.00 in0.0 mm 0.00 in0.0 mm 0.00 in0.0 mm
01:55 PM 76.5°F24.7°C 65.9°F18.8°C 70% 1.4 mph SE2.3 kmh SE 2.0 mph3.2 kmh 29.97 in1014.9 mb 0.00 in0.0 mm 0.00 in0.0 mm 0.00 in0.0 mm
02:00 PM 76.1°F24.5°C 66.0°F18.9°C 71% 0.7 mph ESE1.1 kmh ESE 2.0 mph3.2 kmh 29.97 in1014.9 mb 0.00 in0.0 mm 0.00 in0.0 mm 0.00 in0.0 mm
02:05 PM 75.9°F24.4°C 65.8°F18.8°C 71% 1.9 mph SSE3.1 kmh SSE 4.9 mph7.9 kmh 29.97 in1014.9 mb 0.00 in0.0 mm 0.00 in0.0 mm 0.00 in0.0 mm
02:10 PM 75.6°F24.2°C 65.9°F18.8°C 72% 3.0 mph SSE4.8 kmh SSE 4.9 mph7.9 kmh 29.97 in1014.9 mb 0.00 in0.0 mm 0.00 in0.0 mm 0.00 in0.0 mm
02:15 PM 75.0°F23.9°C 65.4°F18.6°C 72% 1.4 mph SE2.3 kmh SE 3.8 mph6.1 kmh 29.97 in1014.9 mb 0.00 in0.0 mm 0.00 in0.0 mm 0.00 in0.0 mm
02:20 PM 74.8°F23.8°C 65.2°F18.4°C 72% 0.7 mph SE1.1 kmh SE 2.5 mph4.0 kmh 29.97 in1014.9 mb 0.00 in0.0 mm 0.00 in0.0 mm 0.00 in0.0 mm
02:25 PM 74.5°F23.6°C 65.3°F18.5°C 73% 1.3 mph E2.1 kmh E 2.9 mph4.7 kmh 29.97 in1014.9 mb 0.00 in0.0 mm 0.00 in0.0 mm 0.00 in0.0 mm
02:30 PM 74.1°F23.4°C 64.9°F18.3°C 73% 1.0 mph ENE1.6 kmh ENE 2.9 mph4.7 kmh 29.97 in1014.9 mb 0.00 in0.0 mm 0.00 in0.0 mm 0.00 in0.0 mm
02:35 PM 74.1°F23.4°C 64.9°F18.3°C 73% 0.1 mph WSW0.2 kmh WSW 0.7 mph1.1 kmh 29.97 in1014.9 mb 0.00 in0.0 mm 0.00 in0.0 mm 0.00 in0.0 mm
02:40 PM 73.9°F23.3°C 65.1°F18.4°C 74% 0.7 mph SE1.1 kmh SE 4.7 mph7.6 kmh 29.97 in1014.9 mb 0.00 in0.0 mm 0.00 in0.0 mm 0.00 in0.0 mm
02:45 PM 73.8°F23.2°C 65.0°F18.3°C 74% 2.8 mph SE4.5 kmh SE 4.9 mph7.9 kmh 29.97 in1014.9 mb 0.00 in0.0 mm 0.00 in0.0 mm 0.00 in0.0 mm
02:50 PM 73.8°F23.2°C 65.0°F18.3°C 74% 3.1 mph SE5.0 kmh SE 4.9 mph7.9 kmh 29.98 in1015.2 mb 0.00 in0.0 mm 0.00 in0.0 mm 0.00 in0.0 mm
02:55 PM 73.6°F23.1°C 65.2°F18.4°C 75% 2.8 mph E4.5 kmh E 4.9 mph7.9 kmh 29.97 in1014.9 mb 0.00 in0.0 mm 0.00 in0.0 mm 0.00 in0.0 mm
03:00 PM 73.6°F23.1°C 65.2°F18.4°C 75% 3.5 mph E5.6 kmh E 3.6 mph5.8 kmh 29.98 in1015.2 mb 0.00 in0.0 mm 0.00 in0.0 mm 0.00 in0.0 mm
03:05 PM 73.6°F23.1°C 65.2°F18.4°C 75% 3.6 mph E5.8 kmh E 3.6 mph5.8 kmh 29.98 in1015.2 mb 0.00 in0.0 mm 0.00 in0.0 mm 0.00 in0.0 mm
03:10 PM 73.2°F22.9°C 65.2°F18.4°C 76% 3.2 mph ESE5.1 kmh ESE 3.6 mph5.8 kmh 29.97 in1014.9 mb 0.00 in0.0 mm 0.00 in0.0 mm 0.00 in0.0 mm
03:15 PM 73.2°F22.9°C 65.2°F18.4°C 76% 2.8 mph SE4.5 kmh SE 3.6 mph5.8 kmh 29.97 in1014.9 mb 0.00 in0.0 mm 0.00 in0.0 mm 0.00 in0.0 mm
03:20 PM 73.2°F22.9°C 65.2°F18.4°C 76% 2.4 mph SE3.9 kmh SE 3.6 mph5.8 kmh 29.98 in1015.2 mb 0.00 in0.0 mm 0.00 in0.0 mm 0.00 in0.0 mm
03:25 PM 73.0°F22.8°C 65.0°F18.3°C 76% 1.5 mph SSE2.4 kmh SSE 3.6 mph5.8 kmh 29.98 in1015.2 mb 0.00 in0.0 mm 0.00 in0.0 mm 0.00 in0.0 mm
03:30 PM 73.0°F22.8°C 65.0°F18.3°C 76% 0.4 mph E0.6 kmh E 1.8 mph2.9 kmh 29.97 in1014.9 mb 0.00 in0.0 mm 0.00 in0.0 mm 0.00 in0.0 mm
03:35 PM 73.0°F22.8°C 65.0°F18.3°C 76% Calm Calm -- 29.98 in1015.2 mb 0.00 in0.0 mm 0.00 in0.0 mm 0.00 in0.0 mm
03:40 PM 73.0°F22.8°C 65.0°F18.3°C 76% Calm Calm -- 29.97 in1014.9 mb 0.00 in0.0 mm 0.00 in0.0 mm 0.00 in0.0 mm
03:45 PM 72.9°F22.7°C 65.2°F18.4°C 77% Calm Calm -- 29.97 in1014.9 mb 0.00 in0.0 mm 0.00 in0.0 mm 0.00 in0.0 mm
03:50 PM 72.7°F22.6°C 65.1°F18.4°C 77% 0.4 mph SSE0.6 kmh SSE 2.0 mph3.2 kmh 29.97 in1014.9 mb 0.00 in0.0 mm 0.00 in0.0 mm 0.00 in0.0 mm
03:55 PM 72.7°F22.6°C 65.1°F18.4°C 77% 0.5 mph S0.8 kmh S 3.1 mph5.0 kmh 29.99 in1015.6 mb 0.00 in0.0 mm 0.00 in0.0 mm 0.00 in0.0 mm
04:00 PM 72.5°F22.5°C 64.9°F18.3°C 77% 3.7 mph WNW6.0 kmh WNW 11.0 mph17.7 kmh 30.00 in1015.9 mb 0.00 in0.0 mm 0.00 in0.0 mm 0.00 in0.0 mm
04:05 PM 72.5°F22.5°C 64.5°F18.1°C 76% 6.2 mph NW10.0 kmh NW 11.0 mph17.7 kmh 30.01 in1016.3 mb 0.00 in0.0 mm 0.00 in0.0 mm 0.00 in0.0 mm
04:10 PM 71.4°F21.9°C 63.1°F17.3°C 75% 4.4 mph NW7.1 kmh NW 11.0 mph17.7 kmh 30.00 in1015.9 mb 0.00 in0.0 mm 0.00 in0.0 mm 0.00 in0.0 mm
04:15 PM 70.7°F21.5°C 62.4°F16.9°C 75% 3.4 mph NW5.5 kmh NW 5.4 mph8.7 kmh 30.00 in1015.9 mb 0.00 in0.0 mm 0.00 in0.0 mm 0.00 in0.0 mm
04:20 PM 70.0°F21.1°C 62.1°F16.7°C 76% 3.2 mph W5.1 kmh W 5.4 mph8.7 kmh 30.00 in1015.9 mb 0.00 in0.0 mm 0.00 in0.0 mm 0.00 in0.0 mm
04:25 PM 68.5°F20.3°C 60.7°F15.9°C 76% 3.2 mph NNW5.1 kmh NNW 4.9 mph7.9 kmh 30.01 in1016.3 mb 0.16 in4.1 mm 1.92 in48.8 mm 0.16 in4.1 mm
04:30 PM 68.5°F20.3°C 60.7°F15.9°C 76% 4.2 mph N6.8 kmh N 4.9 mph7.9 kmh 30.01 in1016.3 mb 0.16 in4.1 mm 0.00 in0.0 mm 0.16 in4.1 mm
04:35 PM 66.4°F19.1°C 58.9°F14.9°C 77% 5.9 mph NNW9.5 kmh NNW 9.8 mph15.8 kmh 29.99 in1015.6 mb 0.69 in17.5 mm 6.36 in161.5 mm 0.69 in17.5 mm
04:40 PM 64.9°F18.3°C 58.3°F14.6°C 79% 4.3 mph W6.9 kmh W 9.8 mph15.8 kmh 29.99 in1015.6 mb 0.76 in19.3 mm 0.84 in21.3 mm 0.75 in19.1 mm
04:45 PM 64.6°F18.1°C 58.3°F14.6°C 80% 2.7 mph NW4.3 kmh NW 4.5 mph7.2 kmh 29.98 in1015.2 mb 0.81 in20.6 mm 0.60 in15.2 mm 0.82 in20.8 mm
04:50 PM 64.0°F17.8°C 58.1°F14.5°C 81% 2.7 mph N4.3 kmh N 4.3 mph6.9 kmh 29.99 in1015.6 mb 0.81 in20.6 mm 0.00 in0.0 mm 0.82 in20.8 mm
04:55 PM 63.7°F17.6°C 58.1°F14.5°C 82% 1.4 mph NE2.3 kmh NE 3.6 mph5.8 kmh 30.00 in1015.9 mb 0.83 in21.1 mm 0.24 in6.1 mm 0.84 in21.3 mm
05:00 PM 63.7°F17.6°C 58.1°F14.5°C 82% 0.6 mph E1.0 kmh E 1.8 mph2.9 kmh 30.00 in1015.9 mb 0.83 in21.1 mm 0.00 in0.0 mm 0.84 in21.3 mm
05:05 PM 63.3°F17.4°C 58.1°F14.5°C 83% 0.5 mph E0.8 kmh E 2.2 mph3.5 kmh 30.00 in1015.9 mb 0.83 in21.1 mm 0.00 in0.0 mm 0.84 in21.3 mm
05:10 PM 63.3°F17.4°C 58.1°F14.5°C 83% 0.8 mph E1.3 kmh E 2.2 mph3.5 kmh 30.01 in1016.3 mb 0.83 in21.1 mm 0.00 in0.0 mm 0.84 in21.3 mm
05:15 PM 63.1°F17.3°C 57.9°F14.4°C 83% 0.3 mph E0.5 kmh E 0.7 mph1.1 kmh 30.01 in1016.3 mb 0.83 in21.1 mm 0.00 in0.0 mm 0.84 in21.3 mm
05:20 PM 63.1°F17.3°C 57.9°F14.4°C 83% Calm Calm -- 30.00 in1015.9 mb 0.81 in20.6 mm 0.00 in0.0 mm 0.84 in21.3 mm
05:25 PM 63.1°F17.3°C 58.2°F14.6°C 84% 0.8 mph NNW1.3 kmh NNW 2.0 mph3.2 kmh 29.99 in1015.6 mb 0.67 in17.0 mm 0.00 in0.0 mm 0.84 in21.3 mm
05:30 PM 63.0°F17.2°C 58.0°F14.4°C 84% 1.3 mph WNW2.1 kmh WNW 2.0 mph3.2 kmh 30.00 in1015.9 mb 0.67 in17.0 mm 0.00 in0.0 mm 0.84 in21.3 mm
05:35 PM 63.0°F17.2°C 58.4°F14.7°C 85% 0.5 mph SW0.8 kmh SW 1.3 mph2.1 kmh 30.01 in1016.3 mb 0.14 in3.6 mm 0.00 in0.0 mm 0.84 in21.3 mm
05:40 PM 63.0°F17.2°C 58.4°F14.7°C 85% 0.2 mph ESE0.3 kmh ESE 0.9 mph1.4 kmh 30.02 in1016.6 mb 0.08 in2.0 mm 0.00 in0.0 mm 0.84 in21.3 mm
05:45 PM 63.0°F17.2°C 58.4°F14.7°C 85% 0.6 mph WNW1.0 kmh WNW 1.1 mph1.8 kmh 30.02 in1016.6 mb 0.02 in0.5 mm 0.00 in0.0 mm 0.84 in21.3 mm
05:50 PM 63.0°F17.2°C 58.4°F14.7°C 85% 0.5 mph WNW0.8 kmh WNW 1.1 mph1.8 kmh 30.03 in1016.9 mb 0.02 in0.5 mm 0.00 in0.0 mm 0.84 in21.3 mm
05:55 PM 63.0°F17.2°C 58.4°F14.7°C 85% 0.5 mph SSW0.8 kmh SSW 1.6 mph2.6 kmh 30.03 in1016.9 mb 0.00 in0.0 mm 0.00 in0.0 mm 0.84 in21.3 mm
06:00 PM 63.0°F17.2°C 58.4°F14.7°C 85% 1.1 mph SE1.8 kmh SE 1.6 mph2.6 kmh 30.03 in1016.9 mb 0.00 in0.0 mm 0.00 in0.0 mm 0.84 in21.3 mm
06:05 PM 63.0°F17.2°C 58.4°F14.7°C 85% 1.1 mph SE1.8 kmh SE 1.6 mph2.6 kmh 30.04 in1017.3 mb 0.00 in0.0 mm 0.00 in0.0 mm 0.84 in21.3 mm
06:10 PM 63.0°F17.2°C 58.4°F14.7°C 85% 0.6 mph S1.0 kmh S 1.6 mph2.6 kmh 30.03 in1016.9 mb 0.00 in0.0 mm 0.00 in0.0 mm 0.84 in21.3 mm
06:15 PM 63.0°F17.2°C 58.4°F14.7°C 85% 0.3 mph S0.5 kmh S 1.3 mph2.1 kmh 30.03 in1016.9 mb 0.00 in0.0 mm 0.00 in0.0 mm 0.84 in21.3 mm
06:20 PM 63.0°F17.2°C 58.4°F14.7°C 85% 0.7 mph WSW1.1 kmh WSW 1.8 mph2.9 kmh 30.03 in1016.9 mb 0.00 in0.0 mm 0.00 in0.0 mm 0.84 in21.3 mm
06:25 PM 63.0°F17.2°C 58.7°F14.8°C 86% 1.2 mph WSW1.9 kmh WSW 1.8 mph2.9 kmh 30.03 in1016.9 mb 0.00 in0.0 mm 0.00 in0.0 mm 0.84 in21.3 mm
06:30 PM 62.8°F17.1°C 58.5°F14.7°C 86% 0.4 mph WSW0.6 kmh WSW 1.8 mph2.9 kmh 30.03 in1016.9 mb 0.00 in0.0 mm 0.00 in0.0 mm 0.84 in21.3 mm
06:35 PM 62.8°F17.1°C 58.5°F14.7°C 86% Calm Calm -- 30.02 in1016.6 mb 0.00 in0.0 mm 0.00 in0.0 mm 0.84 in21.3 mm
06:40 PM 62.8°F17.1°C 58.5°F14.7°C 86% Calm Calm -- 30.02 in1016.6 mb 0.00 in0.0 mm 0.00 in0.0 mm 0.84 in21.3 mm
06:45 PM 62.8°F17.1°C 58.5°F14.7°C 86% 1.3 mph SE2.1 kmh SE 2.5 mph4.0 kmh 30.03 in1016.9 mb 0.00 in0.0 mm 0.00 in0.0 mm 0.84 in21.3 mm
06:55 PM 62.6°F17.0°C 58.4°F14.7°C 86% 3.1 mph SSE5.0 kmh SSE 5.8 mph9.3 kmh 30.03 in1016.9 mb 0.00 in0.0 mm 0.00 in0.0 mm 0.84 in21.3 mm
07:01 PM 62.4°F16.9°C 58.2°F14.6°C 86% 2.0 mph SE3.2 kmh SE 5.8 mph9.3 kmh 30.03 in1016.9 mb 0.00 in0.0 mm 0.00 in0.0 mm 0.84 in21.3 mm
07:05 PM 62.4°F16.9°C 58.2°F14.6°C 86% 1.8 mph SSE2.9 kmh SSE 3.4 mph5.5 kmh 30.04 in1017.3 mb 0.00 in0.0 mm 0.00 in0.0 mm 0.84 in21.3 mm
07:10 PM 62.2°F16.8°C 58.3°F14.6°C 87% 1.9 mph SSE3.1 kmh SSE 3.4 mph5.5 kmh 30.04 in1017.3 mb 0.00 in0.0 mm 0.00 in0.0 mm 0.84 in21.3 mm
07:15 PM 62.2°F16.8°C 58.3°F14.6°C 87% 0.7 mph SSE1.1 kmh SSE 3.1 mph5.0 kmh 30.04 in1017.3 mb 0.00 in0.0 mm 0.00 in0.0 mm 0.84 in21.3 mm
07:20 PM 62.1°F16.7°C 58.1°F14.5°C 87% Calm Calm -- 30.04 in1017.3 mb 0.00 in0.0 mm 0.00 in0.0 mm 0.84 in21.3 mm
07:25 PM 62.1°F16.7°C 58.1°F14.5°C 87% Calm Calm -- 30.04 in1017.3 mb 0.00 in0.0 mm 0.00 in0.0 mm 0.84 in21.3 mm
07:30 PM 62.1°F16.7°C 58.1°F14.5°C 87% 0.2 mph S0.3 kmh S 1.1 mph1.8 kmh 30.04 in1017.3 mb 0.00 in0.0 mm 0.00 in0.0 mm 0.84 in21.3 mm
07:35 PM 62.1°F16.7°C 58.1°F14.5°C 87% 0.2 mph S0.3 kmh S 1.1 mph1.8 kmh 30.05 in1017.6 mb 0.00 in0.0 mm 0.00 in0.0 mm 0.84 in21.3 mm
07:40 PM 62.1°F16.7°C 58.1°F14.5°C 87% Calm Calm -- 30.06 in1017.9 mb 0.00 in0.0 mm 0.00 in0.0 mm 0.84 in21.3 mm
07:45 PM 62.1°F16.7°C 58.1°F14.5°C 87% Calm Calm -- 30.06 in1017.9 mb 0.00 in0.0 mm 0.00 in0.0 mm 0.84 in21.3 mm
07:50 PM 62.1°F16.7°C 58.1°F14.5°C 87% Calm Calm -- 30.06 in1017.9 mb 0.00 in0.0 mm 0.00 in0.0 mm 0.84 in21.3 mm
07:55 PM 62.1°F16.7°C 58.1°F14.5°C 87% Calm Calm -- 30.06 in1017.9 mb 0.00 in0.0 mm 0.00 in0.0 mm 0.84 in21.3 mm
08:00 PM 62.1°F16.7°C 58.1°F14.5°C 87% Calm Calm -- 30.06 in1017.9 mb 0.00 in0.0 mm 0.00 in0.0 mm 0.84 in21.3 mm
08:05 PM 62.1°F16.7°C 58.1°F14.5°C 87% Calm Calm -- 30.07 in1018.3 mb 0.00 in0.0 mm 0.00 in0.0 mm 0.84 in21.3 mm
08:10 PM 62.1°F16.7°C 58.1°F14.5°C 87% Calm Calm -- 30.07 in1018.3 mb 0.00 in0.0 mm 0.00 in0.0 mm 0.84 in21.3 mm
08:15 PM 62.1°F16.7°C 58.1°F14.5°C 87% Calm Calm -- 30.07 in1018.3 mb 0.00 in0.0 mm 0.00 in0.0 mm 0.84 in21.3 mm
08:20 PM 62.1°F16.7°C 58.1°F14.5°C 87% Calm Calm -- 30.07 in1018.3 mb 0.00 in0.0 mm 0.00 in0.0 mm 0.84 in21.3 mm
08:25 PM 62.1°F16.7°C 58.5°F14.7°C 88% 0.2 mph ENE0.3 kmh ENE 0.9 mph1.4 kmh 30.07 in1018.3 mb 0.00 in0.0 mm 0.00 in0.0 mm 0.84 in21.3 mm
08:30 PM 62.1°F16.7°C 58.5°F14.7°C 88% 0.2 mph ENE0.3 kmh ENE 0.9 mph1.4 kmh 30.08 in1018.6 mb 0.00 in0.0 mm 0.00 in0.0 mm 0.84 in21.3 mm
08:35 PM 62.1°F16.7°C 58.5°F14.7°C 88% Calm Calm 0.9 mph1.4 kmh 30.09 in1019.0 mb 0.00 in0.0 mm 0.00 in0.0 mm 0.84 in21.3 mm
08:40 PM 62.1°F16.7°C 58.5°F14.7°C 88% 0.7 mph SSW1.1 kmh SSW 2.2 mph3.5 kmh 30.09 in1019.0 mb 0.00 in0.0 mm 0.00 in0.0 mm 0.84 in21.3 mm
08:45 PM 62.2°F16.8°C 58.6°F14.8°C 88% 0.8 mph SSW1.3 kmh SSW 2.2 mph3.5 kmh 30.09 in1019.0 mb 0.00 in0.0 mm 0.00 in0.0 mm 0.84 in21.3 mm
08:50 PM 62.2°F16.8°C 58.6°F14.8°C 88% 0.1 mph SSE0.2 kmh SSE 2.2 mph3.5 kmh 30.09 in1019.0 mb 0.00 in0.0 mm 0.00 in0.0 mm 0.84 in21.3 mm
08:55 PM 62.1°F16.7°C 58.5°F14.7°C 88% Calm Calm -- 30.09 in1019.0 mb 0.00 in0.0 mm 0.00 in0.0 mm 0.84 in21.3 mm
09:00 PM 62.1°F16.7°C 58.5°F14.7°C 88% Calm Calm -- 30.09 in1019.0 mb 0.00 in0.0 mm 0.00 in0.0 mm 0.84 in21.3 mm
09:05 PM 62.1°F16.7°C 58.5°F14.7°C 88% 0.3 mph SSE0.5 kmh SSE 2.5 mph4.0 kmh 30.09 in1019.0 mb 0.00 in0.0 mm 0.00 in0.0 mm 0.84 in21.3 mm
09:10 PM 62.1°F16.7°C 58.5°F14.7°C 88% 0.8 mph SE1.3 kmh SE 2.5 mph4.0 kmh 30.09 in1019.0 mb 0.00 in0.0 mm 0.00 in0.0 mm 0.84 in21.3 mm
09:15 PM 61.9°F16.6°C 58.3°F14.6°C 88% 0.6 mph ESE1.0 kmh ESE 2.5 mph4.0 kmh 30.10 in1019.3 mb 0.00 in0.0 mm 0.00 in0.0 mm 0.84 in21.3 mm
09:20 PM 61.9°F16.6°C 58.3°F14.6°C 88% 0.7 mph E1.1 kmh E 1.6 mph2.6 kmh 30.10 in1019.3 mb 0.00 in0.0 mm 0.00 in0.0 mm 0.84 in21.3 mm
09:25 PM 61.9°F16.6°C 58.6°F14.8°C 89% 1.2 mph ESE1.9 kmh ESE 2.0 mph3.2 kmh 30.10 in1019.3 mb 0.00 in0.0 mm 0.00 in0.0 mm 0.84 in21.3 mm
09:30 PM 61.9°F16.6°C 58.6°F14.8°C 89% 1.3 mph SE2.1 kmh SE 2.0 mph3.2 kmh 30.10 in1019.3 mb 0.00 in0.0 mm 0.00 in0.0 mm 0.84 in21.3 mm
09:35 PM 61.9°F16.6°C 58.6°F14.8°C 89% 0.9 mph SE1.4 kmh SE 1.6 mph2.6 kmh 30.10 in1019.3 mb 0.00 in0.0 mm 0.00 in0.0 mm 0.84 in21.3 mm
09:40 PM 61.7°F16.5°C 58.4°F14.7°C 89% 1.2 mph S1.9 kmh S 2.5 mph4.0 kmh 30.10 in1019.3 mb 0.00 in0.0 mm 0.00 in0.0 mm 0.84 in21.3 mm
09:45 PM 61.7°F16.5°C 58.4°F14.7°C 89% 1.7 mph S2.7 kmh S 2.5 mph4.0 kmh 30.10 in1019.3 mb 0.00 in0.0 mm 0.00 in0.0 mm 0.84 in21.3 mm
09:50 PM 61.5°F16.4°C 58.2°F14.6°C 89% 1.6 mph E2.6 kmh E 5.8 mph9.3 kmh 30.10 in1019.3 mb 0.00 in0.0 mm 0.00 in0.0 mm 0.84 in21.3 mm
09:55 PM 61.5°F16.4°C 58.2°F14.6°C 89% 3.8 mph E6.1 kmh E 5.8 mph9.3 kmh 30.10 in1019.3 mb 0.00 in0.0 mm 0.00 in0.0 mm 0.84 in21.3 mm
10:00 PM 61.5°F16.4°C 58.2°F14.6°C 89% 4.2 mph E6.8 kmh E 5.8 mph9.3 kmh 30.10 in1019.3 mb 0.00 in0.0 mm 0.00 in0.0 mm 0.84 in21.3 mm
10:05 PM 61.5°F16.4°C 58.2°F14.6°C 89% 1.8 mph SSE2.9 kmh SSE 5.8 mph9.3 kmh 30.11 in1019.6 mb 0.00 in0.0 mm 0.00 in0.0 mm 0.84 in21.3 mm
10:10 PM 61.3°F16.3°C 58.1°F14.5°C 89% 0.5 mph SSW0.8 kmh SSW 2.9 mph4.7 kmh 30.11 in1019.6 mb 0.00 in0.0 mm 0.00 in0.0 mm 0.84 in21.3 mm
10:15 PM 61.3°F16.3°C 58.4°F14.7°C 90% Calm Calm -- 30.11 in1019.6 mb 0.00 in0.0 mm 0.00 in0.0 mm 0.84 in21.3 mm
10:20 PM 61.2°F16.2°C 58.2°F14.6°C 90% 0.4 mph SSW0.6 kmh SSW 1.3 mph2.1 kmh 30.11 in1019.6 mb 0.00 in0.0 mm 0.00 in0.0 mm 0.84 in21.3 mm
10:25 PM 61.0°F16.1°C 58.0°F14.4°C 90% 1.7 mph SE2.7 kmh SE 3.6 mph5.8 kmh 30.11 in1019.6 mb 0.00 in0.0 mm 0.00 in0.0 mm 0.84 in21.3 mm
10:30 PM 61.0°F16.1°C 58.0°F14.4°C 90% 2.7 mph ESE4.3 kmh ESE 4.5 mph7.2 kmh 30.11 in1019.6 mb 0.00 in0.0 mm 0.00 in0.0 mm 0.84 in21.3 mm
10:35 PM 61.0°F16.1°C 58.0°F14.4°C 90% 3.7 mph SE6.0 kmh SE 4.5 mph7.2 kmh 30.10 in1019.3 mb 0.00 in0.0 mm 0.00 in0.0 mm 0.84 in21.3 mm
10:40 PM 60.6°F15.9°C 57.7°F14.3°C 90% 3.4 mph SSE5.5 kmh SSE 4.5 mph7.2 kmh 30.11 in1019.6 mb 0.00 in0.0 mm 0.00 in0.0 mm 0.84 in21.3 mm
10:45 PM 60.4°F15.8°C 57.5°F14.2°C 90% 2.8 mph SE4.5 kmh SE 4.5 mph7.2 kmh 30.10 in1019.3 mb 0.00 in0.0 mm 0.00 in0.0 mm 0.84 in21.3 mm
10:50 PM 60.4°F15.8°C 57.5°F14.2°C 90% 2.6 mph E4.2 kmh E 4.3 mph6.9 kmh 30.11 in1019.6 mb 0.00 in0.0 mm 0.00 in0.0 mm 0.84 in21.3 mm
10:55 PM 60.1°F15.6°C 57.1°F13.9°C 90% 1.6 mph SE2.6 kmh SE 4.3 mph6.9 kmh 30.11 in1019.6 mb 0.00 in0.0 mm 0.00 in0.0 mm 0.84 in21.3 mm
11:00 PM 60.1°F15.6°C 57.1°F13.9°C 90% 2.0 mph SE3.2 kmh SE 2.7 mph4.3 kmh 30.11 in1019.6 mb 0.00 in0.0 mm 0.00 in0.0 mm 0.83 in21.1 mm
11:05 PM 60.1°F15.6°C 57.1°F13.9°C 90% 1.8 mph SE2.9 kmh SE 2.7 mph4.3 kmh 30.11 in1019.6 mb 0.00 in0.0 mm 0.00 in0.0 mm 0.83 in21.1 mm
11:10 PM 60.1°F15.6°C 57.1°F13.9°C 90% 0.5 mph SE0.8 kmh SE 2.7 mph4.3 kmh 30.11 in1019.6 mb 0.00 in0.0 mm 0.00 in0.0 mm 0.83 in21.1 mm
11:15 PM 60.1°F15.6°C 57.1°F13.9°C 90% 0.6 mph E1.0 kmh E 2.7 mph4.3 kmh 30.11 in1019.6 mb 0.00 in0.0 mm 0.00 in0.0 mm 0.83 in21.1 mm
11:20 PM 60.1°F15.6°C 57.1°F13.9°C 90% 0.6 mph E1.0 kmh E 2.7 mph4.3 kmh 30.11 in1019.6 mb 0.00 in0.0 mm 0.00 in0.0 mm 0.83 in21.1 mm
11:25 PM 60.1°F15.6°C 57.1°F13.9°C 90% Calm Calm -- 30.11 in1019.6 mb 0.00 in0.0 mm 0.00 in0.0 mm 0.83 in21.1 mm
11:30 PM 60.1°F15.6°C 57.1°F13.9°C 90% Calm Calm -- 30.11 in1019.6 mb 0.00 in0.0 mm 0.00 in0.0 mm 0.83 in21.1 mm
11:35 PM 59.7°F15.4°C 56.8°F13.8°C 90% Calm Calm -- 30.11 in1019.6 mb 0.00 in0.0 mm 0.00 in0.0 mm 0.83 in21.1 mm
11:40 PM 59.5°F15.3°C 56.6°F13.7°C 90% Calm Calm -- 30.11 in1019.6 mb 0.00 in0.0 mm 0.00 in0.0 mm 0.83 in21.1 mm
11:45 PM 59.5°F15.3°C 56.6°F13.7°C 90% Calm Calm -- 30.11 in1019.6 mb 0.00 in0.0 mm 0.00 in0.0 mm 0.83 in21.1 mm
11:50 PM 59.5°F15.3°C 56.6°F13.7°C 90% Calm Calm -- 30.11 in1019.6 mb 0.00 in0.0 mm 0.00 in0.0 mm 0.83 in21.1 mm
11:55 PM 59.5°F15.3°C 56.6°F13.7°C 90% Calm Calm -- 30.11 in1019.6 mb 0.00 in0.0 mm 0.00 in0.0 mm 0.83 in21.1 mm